Terminal Aerodrome Forecast
Issued by NWS Charleston, SC

Home | Current Version | Previous Version | Text Only | Print | Product List | Glossary On
Versions: 1 2 3 4 5 6 7 8 9 10 11 12 13 14 15 16 17 18 19 20 21
595
FTUS42 KCHS 301123
TAFCHS
TAF
KCHS 301123Z 3012/3112 02005KT P6SM FEW020 SCT050
     FM301500 05008KT P6SM VCSH BKN035
     FM302030 09007KT P6SM SCT040
     FM310400 06004KT P6SM FEW020 SCT050=

USA.gov is the U.S. government's official web portal to all federal, state and local government web resources and services.